Terminal Aerodrome Forecast
Issued by NWS Louisville, KY

Home | Current Version | Previous Version | Text Only | Print | Product List | Glossary On
Versions: 1 2 3 4 5 6 7 8 9 10 11 12 13
000
FTUS43 KLMK 120500
TAFLEX
TAF
KLEX 120520Z 1206/1306 01006KT P6SM SCT030
     FM120900 02004KT 5SM BR OVC008
     FM121400 04009KT P6SM BKN015
     FM121800 03010KT P6SM BKN035=

USA.gov is the U.S. government's official web portal to all federal, state and local government web resources and services.